sensor_id;sensor_type;location;lat;lon;timestamp;P1;durP1;ratioP1;P2;durP2;ratioP2
24335;SDS011;33098;52.400;16.880;2022-12-07T00:01:19;9.30;;;6.10;;
24335;SDS011;33098;52.400;16.880;2022-12-07T00:03:55;9.60;;;6.40;;
24335;SDS011;33098;52.400;16.880;2022-12-07T00:06:26;11.40;;;6.70;;
24335;SDS011;33098;52.400;16.880;2022-12-07T00:08:53;11.60;;;6.70;;
24335;SDS011;33098;52.400;16.880;2022-12-07T00:11:21;11.30;;;6.40;;
24335;SDS011;33098;52.400;16.880;2022-12-07T00:13:55;10.90;;;6.90;;
24335;SDS011;33098;52.400;16.880;2022-12-07T00:16:25;10.00;;;6.50;;
24335;SDS011;33098;52.400;16.880;2022-12-07T00:18:53;12.50;;;7.30;;
24335;SDS011;33098;52.400;16.880;2022-12-07T00:21:25;11.50;;;6.90;;
24335;SDS011;33098;52.400;16.880;2022-12-07T00:23:53;12.40;;;7.80;;
24335;SDS011;33098;52.400;16.880;2022-12-07T00:26:22;11.80;;;7.50;;
24335;SDS011;33098;52.400;16.880;2022-12-07T00:28:55;13.10;;;7.90;;
24335;SDS011;33098;52.400;16.880;2022-12-07T00:31:28;12.00;;;7.80;;
24335;SDS011;33098;52.400;16.880;2022-12-07T00:33:57;12.80;;;8.20;;
24335;SDS011;33098;52.400;16.880;2022-12-07T00:36:24;14.20;;;8.00;;
24335;SDS011;33098;52.400;16.880;2022-12-07T00:38:51;11.70;;;8.10;;
24335;SDS011;33098;52.400;16.880;2022-12-07T00:41:20;10.90;;;7.30;;
24335;SDS011;33098;52.400;16.880;2022-12-07T00:46:16;10.40;;;6.50;;
24335;SDS011;33098;52.400;16.880;2022-12-07T00:48:44;11.10;;;7.40;;
24335;SDS011;33098;52.400;16.880;2022-12-07T00:51:12;12.70;;;8.00;;
24335;SDS011;33098;52.400;16.880;2022-12-07T00:53:40;11.20;;;8.00;;
24335;SDS011;33098;52.400;16.880;2022-12-07T00:58:48;10.80;;;6.90;;
24335;SDS011;33098;52.400;16.880;2022-12-07T01:01:17;12.00;;;8.20;;
24335;SDS011;33098;52.400;16.880;2022-12-07T01:03:43;11.70;;;7.80;;
24335;SDS011;33098;52.400;16.880;2022-12-07T01:06:13;11.50;;;7.70;;
24335;SDS011;33098;52.400;16.880;2022-12-07T01:08:41;11.90;;;8.30;;
24335;SDS011;33098;52.400;16.880;2022-12-07T01:11:09;11.90;;;8.20;;
24335;SDS011;33098;52.400;16.880;2022-12-07T01:13:39;14.20;;;8.90;;
24335;SDS011;33098;52.400;16.880;2022-12-07T01:16:07;13.50;;;8.70;;
24335;SDS011;33098;52.400;16.880;2022-12-07T01:18:35;12.00;;;7.70;;
24335;SDS011;33098;52.400;16.880;2022-12-07T01:21:03;13.50;;;9.40;;
24335;SDS011;33098;52.400;16.880;2022-12-07T01:23:32;12.50;;;9.10;;
24335;SDS011;33098;52.400;16.880;2022-12-07T01:26:02;12.60;;;8.80;;
24335;SDS011;33098;52.400;16.880;2022-12-07T01:28:32;14.40;;;9.40;;
24335;SDS011;33098;52.400;16.880;2022-12-07T01:33:45;12.00;;;8.80;;
24335;SDS011;33098;52.400;16.880;2022-12-07T01:38:55;13.60;;;8.90;;
24335;SDS011;33098;52.400;16.880;2022-12-07T01:41:25;11.10;;;8.00;;
24335;SDS011;33098;52.400;16.880;2022-12-07T01:44:11;12.60;;;8.60;;
24335;SDS011;33098;52.400;16.880;2022-12-07T01:46:52;15.00;;;8.70;;
24335;SDS011;33098;52.400;16.880;2022-12-07T01:49:36;11.80;;;8.30;;
24335;SDS011;33098;52.400;16.880;2022-12-07T01:52:13;12.30;;;8.20;;
24335;SDS011;33098;52.400;16.880;2022-12-07T01:54:43;11.90;;;8.20;;
24335;SDS011;33098;52.400;16.880;2022-12-07T01:57:11;12.50;;;8.30;;
24335;SDS011;33098;52.400;16.880;2022-12-07T01:59:41;13.60;;;8.20;;
24335;SDS011;33098;52.400;16.880;2022-12-07T02:02:12;11.40;;;8.40;;
24335;SDS011;33098;52.400;16.880;2022-12-07T02:04:53;13.30;;;8.20;;
24335;SDS011;33098;52.400;16.880;2022-12-07T02:07:21;10.40;;;7.60;;
24335;SDS011;33098;52.400;16.880;2022-12-07T02:09:49;11.10;;;7.60;;
24335;SDS011;33098;52.400;16.880;2022-12-07T02:12:16;9.00;;;6.60;;
24335;SDS011;33098;52.400;16.880;2022-12-07T02:14:43;11.50;;;7.40;;
24335;SDS011;33098;52.400;16.880;2022-12-07T02:22:59;10.10;;;7.90;;
24335;SDS011;33098;52.400;16.880;2022-12-07T02:26:02;9.30;;;6.80;;
24335;SDS011;33098;52.400;16.880;2022-12-07T02:29:04;9.80;;;7.20;;
24335;SDS011;33098;52.400;16.880;2022-12-07T02:32:23;8.50;;;6.30;;
24335;SDS011;33098;52.400;16.880;2022-12-07T02:43:16;9.50;;;7.00;;
24335;SDS011;33098;52.400;16.880;2022-12-07T02:46:17;10.20;;;7.30;;
24335;SDS011;33098;52.400;16.880;2022-12-07T02:49:06;8.00;;;6.20;;
24335;SDS011;33098;52.400;16.880;2022-12-07T02:51:38;8.90;;;6.60;;
24335;SDS011;33098;52.400;16.880;2022-12-07T02:54:14;7.70;;;6.40;;
24335;SDS011;33098;52.400;16.880;2022-12-07T03:04:47;8.20;;;6.70;;
24335;SDS011;33098;52.400;16.880;2022-12-07T03:07:42;8.50;;;6.80;;
24335;SDS011;33098;52.400;16.880;2022-12-07T03:13:10;10.20;;;6.60;;
24335;SDS011;33098;52.400;16.880;2022-12-07T03:18:13;8.60;;;6.50;;
24335;SDS011;33098;52.400;16.880;2022-12-07T03:20:44;9.30;;;6.70;;
24335;SDS011;33098;52.400;16.880;2022-12-07T03:23:15;10.20;;;7.40;;
24335;SDS011;33098;52.400;16.880;2022-12-07T03:25:46;10.30;;;6.80;;
24335;SDS011;33098;52.400;16.880;2022-12-07T03:28:17;8.90;;;6.60;;
24335;SDS011;33098;52.400;16.880;2022-12-07T03:30:49;9.00;;;6.50;;
24335;SDS011;33098;52.400;16.880;2022-12-07T03:33:31;7.80;;;6.40;;
24335;SDS011;33098;52.400;16.880;2022-12-07T03:39:19;6.60;;;5.10;;
24335;SDS011;33098;52.400;16.880;2022-12-07T03:41:48;7.30;;;6.00;;
24335;SDS011;33098;52.400;16.880;2022-12-07T03:44:15;7.60;;;6.40;;
24335;SDS011;33098;52.400;16.880;2022-12-07T03:46:50;7.20;;;5.80;;
24335;SDS011;33098;52.400;16.880;2022-12-07T03:49:35;7.40;;;5.80;;
24335;SDS011;33098;52.400;16.880;2022-12-07T03:55:04;6.80;;;5.80;;
24335;SDS011;33098;52.400;16.880;2022-12-07T03:57:40;6.20;;;5.50;;
24335;SDS011;33098;52.400;16.880;2022-12-07T04:00:10;7.70;;;6.20;;
24335;SDS011;33098;52.400;16.880;2022-12-07T04:02:40;9.20;;;6.00;;
24335;SDS011;33098;52.400;16.880;2022-12-07T04:05:08;7.80;;;6.20;;
24335;SDS011;33098;52.400;16.880;2022-12-07T04:07:35;7.80;;;6.10;;
24335;SDS011;33098;52.400;16.880;2022-12-07T04:10:02;7.10;;;5.80;;
24335;SDS011;33098;52.400;16.880;2022-12-07T04:12:29;6.40;;;5.60;;
24335;SDS011;33098;52.400;16.880;2022-12-07T04:14:56;8.90;;;6.60;;
24335;SDS011;33098;52.400;16.880;2022-12-07T04:17:22;7.90;;;6.20;;
24335;SDS011;33098;52.400;16.880;2022-12-07T04:19:49;7.70;;;6.10;;
24335;SDS011;33098;52.400;16.880;2022-12-07T04:22:15;8.80;;;6.90;;
24335;SDS011;33098;52.400;16.880;2022-12-07T04:24:42;9.40;;;6.90;;
24335;SDS011;33098;52.400;16.880;2022-12-07T04:27:09;8.90;;;7.30;;
24335;SDS011;33098;52.400;16.880;2022-12-07T04:29:35;9.90;;;7.40;;
24335;SDS011;33098;52.400;16.880;2022-12-07T04:32:02;10.70;;;7.90;;
24335;SDS011;33098;52.400;16.880;2022-12-07T04:34:29;8.40;;;7.00;;
24335;SDS011;33098;52.400;16.880;2022-12-07T04:36:56;12.30;;;8.50;;
24335;SDS011;33098;52.400;16.880;2022-12-07T04:39:24;12.10;;;9.50;;
24335;SDS011;33098;52.400;16.880;2022-12-07T04:41:53;12.10;;;8.30;;
24335;SDS011;33098;52.400;16.880;2022-12-07T04:44:23;10.80;;;8.00;;
24335;SDS011;33098;52.400;16.880;2022-12-07T04:46:50;9.50;;;7.80;;
24335;SDS011;33098;52.400;16.880;2022-12-07T04:49:18;10.70;;;7.80;;
24335;SDS011;33098;52.400;16.880;2022-12-07T04:51:45;10.30;;;8.00;;
24335;SDS011;33098;52.400;16.880;2022-12-07T04:54:12;10.10;;;8.50;;
24335;SDS011;33098;52.400;16.880;2022-12-07T04:56:40;10.40;;;8.20;;
24335;SDS011;33098;52.400;16.880;2022-12-07T04:59:07;9.80;;;7.70;;
24335;SDS011;33098;52.400;16.880;2022-12-07T05:01:36;9.40;;;7.80;;
24335;SDS011;33098;52.400;16.880;2022-12-07T05:04:03;12.70;;;9.00;;
24335;SDS011;33098;52.400;16.880;2022-12-07T05:06:29;12.00;;;9.10;;
24335;SDS011;33098;52.400;16.880;2022-12-07T05:08:56;10.60;;;8.50;;
24335;SDS011;33098;52.400;16.880;2022-12-07T05:11:23;10.10;;;8.10;;
24335;SDS011;33098;52.400;16.880;2022-12-07T05:16:33;8.40;;;7.00;;
24335;SDS011;33098;52.400;16.880;2022-12-07T05:19:00;8.80;;;7.20;;
24335;SDS011;33098;52.400;16.880;2022-12-07T05:21:26;11.90;;;7.70;;
24335;SDS011;33098;52.400;16.880;2022-12-07T05:23:53;9.50;;;7.70;;
24335;SDS011;33098;52.400;16.880;2022-12-07T05:26:19;9.30;;;7.70;;
24335;SDS011;33098;52.400;16.880;2022-12-07T05:28:49;9.90;;;7.70;;
24335;SDS011;33098;52.400;16.880;2022-12-07T05:31:17;8.60;;;7.40;;
24335;SDS011;33098;52.400;16.880;2022-12-07T05:33:44;10.40;;;7.20;;
24335;SDS011;33098;52.400;16.880;2022-12-07T05:36:10;9.30;;;7.90;;
24335;SDS011;33098;52.400;16.880;2022-12-07T05:38:37;11.20;;;8.30;;
24335;SDS011;33098;52.400;16.880;2022-12-07T05:41:04;13.00;;;8.60;;
24335;SDS011;33098;52.400;16.880;2022-12-07T05:43:32;11.30;;;8.30;;
24335;SDS011;33098;52.400;16.880;2022-12-07T05:46:00;8.90;;;7.50;;
24335;SDS011;33098;52.400;16.880;2022-12-07T05:48:26;11.90;;;8.40;;
24335;SDS011;33098;52.400;16.880;2022-12-07T05:50:53;11.40;;;8.70;;
24335;SDS011;33098;52.400;16.880;2022-12-07T05:53:19;9.40;;;6.50;;
24335;SDS011;33098;52.400;16.880;2022-12-07T05:55:46;8.90;;;7.60;;
24335;SDS011;33098;52.400;16.880;2022-12-07T05:58:13;8.60;;;7.20;;
24335;SDS011;33098;52.400;16.880;2022-12-07T06:00:58;9.20;;;7.70;;
24335;SDS011;33098;52.400;16.880;2022-12-07T06:03:24;11.00;;;8.20;;
24335;SDS011;33098;52.400;16.880;2022-12-07T06:05:51;9.40;;;7.00;;
24335;SDS011;33098;52.400;16.880;2022-12-07T06:08:18;7.30;;;6.00;;
24335;SDS011;33098;52.400;16.880;2022-12-07T06:10:46;9.60;;;7.50;;
24335;SDS011;33098;52.400;16.880;2022-12-07T06:13:33;7.80;;;6.00;;
24335;SDS011;33098;52.400;16.880;2022-12-07T06:15:59;8.90;;;6.60;;
24335;SDS011;33098;52.400;16.880;2022-12-07T06:18:26;8.70;;;7.10;;
24335;SDS011;33098;52.400;16.880;2022-12-07T06:20:52;9.80;;;7.30;;
24335;SDS011;33098;52.400;16.880;2022-12-07T06:23:19;8.90;;;6.90;;
24335;SDS011;33098;52.400;16.880;2022-12-07T06:25:45;7.80;;;6.40;;
24335;SDS011;33098;52.400;16.880;2022-12-07T06:28:12;7.60;;;6.30;;
24335;SDS011;33098;52.400;16.880;2022-12-07T06:30:38;8.70;;;6.40;;
24335;SDS011;33098;52.400;16.880;2022-12-07T06:33:05;7.80;;;5.80;;
24335;SDS011;33098;52.400;16.880;2022-12-07T06:35:32;8.50;;;6.40;;
24335;SDS011;33098;52.400;16.880;2022-12-07T06:38:00;8.00;;;6.30;;
24335;SDS011;33098;52.400;16.880;2022-12-07T06:40:26;6.30;;;5.40;;
24335;SDS011;33098;52.400;16.880;2022-12-07T06:42:53;7.70;;;5.80;;
24335;SDS011;33098;52.400;16.880;2022-12-07T06:45:19;7.00;;;5.40;;
24335;SDS011;33098;52.400;16.880;2022-12-07T06:47:46;7.10;;;5.60;;
24335;SDS011;33098;52.400;16.880;2022-12-07T06:50:12;7.50;;;5.90;;
24335;SDS011;33098;52.400;16.880;2022-12-07T06:52:39;7.90;;;6.30;;
24335;SDS011;33098;52.400;16.880;2022-12-07T06:55:06;7.00;;;5.40;;
24335;SDS011;33098;52.400;16.880;2022-12-07T06:57:33;6.50;;;5.60;;
24335;SDS011;33098;52.400;16.880;2022-12-07T06:59:59;8.00;;;5.50;;
24335;SDS011;33098;52.400;16.880;2022-12-07T07:02:26;7.30;;;5.60;;
24335;SDS011;33098;52.400;16.880;2022-12-07T07:04:52;8.00;;;5.30;;
24335;SDS011;33098;52.400;16.880;2022-12-07T07:07:19;7.10;;;5.30;;
24335;SDS011;33098;52.400;16.880;2022-12-07T07:09:45;6.50;;;5.20;;
24335;SDS011;33098;52.400;16.880;2022-12-07T07:12:12;7.50;;;5.70;;
24335;SDS011;33098;52.400;16.880;2022-12-07T07:14:38;8.90;;;6.10;;
24335;SDS011;33098;52.400;16.880;2022-12-07T07:17:05;7.80;;;5.80;;
24335;SDS011;33098;52.400;16.880;2022-12-07T07:19:31;8.00;;;6.10;;
24335;SDS011;33098;52.400;16.880;2022-12-07T07:21:58;6.60;;;5.10;;
24335;SDS011;33098;52.400;16.880;2022-12-07T07:24:24;7.50;;;5.60;;
24335;SDS011;33098;52.400;16.880;2022-12-07T07:26:51;6.60;;;5.00;;
24335;SDS011;33098;52.400;16.880;2022-12-07T07:29:17;6.00;;;4.30;;
24335;SDS011;33098;52.400;16.880;2022-12-07T07:31:44;5.40;;;4.40;;
24335;SDS011;33098;52.400;16.880;2022-12-07T07:34:10;7.50;;;5.40;;
24335;SDS011;33098;52.400;16.880;2022-12-07T07:36:37;4.80;;;3.90;;
24335;SDS011;33098;52.400;16.880;2022-12-07T07:39:04;6.90;;;4.30;;
24335;SDS011;33098;52.400;16.880;2022-12-07T07:41:31;4.80;;;3.80;;
24335;SDS011;33098;52.400;16.880;2022-12-07T07:43:58;6.30;;;4.70;;
24335;SDS011;33098;52.400;16.880;2022-12-07T07:46:24;6.30;;;4.20;;
24335;SDS011;33098;52.400;16.880;2022-12-07T07:48:51;5.50;;;4.10;;
24335;SDS011;33098;52.400;16.880;2022-12-07T07:51:17;5.40;;;4.00;;
24335;SDS011;33098;52.400;16.880;2022-12-07T07:53:44;4.40;;;3.50;;
24335;SDS011;33098;52.400;16.880;2022-12-07T07:56:10;5.60;;;3.40;;
24335;SDS011;33098;52.400;16.880;2022-12-07T07:58:37;5.30;;;3.70;;
24335;SDS011;33098;52.400;16.880;2022-12-07T08:01:05;4.20;;;3.70;;
24335;SDS011;33098;52.400;16.880;2022-12-07T08:03:33;5.40;;;4.40;;
24335;SDS011;33098;52.400;16.880;2022-12-07T08:06:01;5.40;;;4.20;;
24335;SDS011;33098;52.400;16.880;2022-12-07T08:08:29;5.00;;;4.10;;
24335;SDS011;33098;52.400;16.880;2022-12-07T08:10:56;6.40;;;5.10;;
24335;SDS011;33098;52.400;16.880;2022-12-07T08:13:22;9.30;;;5.90;;
24335;SDS011;33098;52.400;16.880;2022-12-07T08:15:49;10.20;;;6.70;;
24335;SDS011;33098;52.400;16.880;2022-12-07T08:18:15;11.40;;;7.00;;
24335;SDS011;33098;52.400;16.880;2022-12-07T08:20:42;11.20;;;6.70;;
24335;SDS011;33098;52.400;16.880;2022-12-07T08:23:09;11.00;;;6.50;;
24335;SDS011;33098;52.400;16.880;2022-12-07T08:25:37;9.40;;;7.30;;
24335;SDS011;33098;52.400;16.880;2022-12-07T08:28:04;12.60;;;8.20;;
24335;SDS011;33098;52.400;16.880;2022-12-07T08:30:30;12.80;;;8.50;;
24335;SDS011;33098;52.400;16.880;2022-12-07T08:32:57;12.10;;;8.40;;
24335;SDS011;33098;52.400;16.880;2022-12-07T08:35:24;12.90;;;8.30;;
24335;SDS011;33098;52.400;16.880;2022-12-07T08:37:51;14.20;;;9.30;;
24335;SDS011;33098;52.400;16.880;2022-12-07T08:40:18;14.40;;;8.50;;
24335;SDS011;33098;52.400;16.880;2022-12-07T08:42:48;11.50;;;7.80;;
24335;SDS011;33098;52.400;16.880;2022-12-07T08:45:16;14.10;;;8.50;;
24335;SDS011;33098;52.400;16.880;2022-12-07T08:47:51;14.20;;;8.60;;
24335;SDS011;33098;52.400;16.880;2022-12-07T08:50:27;11.10;;;7.60;;
24335;SDS011;33098;52.400;16.880;2022-12-07T08:52:55;13.30;;;7.90;;
24335;SDS011;33098;52.400;16.880;2022-12-07T08:55:24;12.30;;;7.50;;
24335;SDS011;33098;52.400;16.880;2022-12-07T08:57:51;10.80;;;7.50;;
24335;SDS011;33098;52.400;16.880;2022-12-07T09:00:18;12.40;;;8.20;;
24335;SDS011;33098;52.400;16.880;2022-12-07T09:02:45;12.40;;;7.40;;
24335;SDS011;33098;52.400;16.880;2022-12-07T09:05:12;11.20;;;7.70;;
24335;SDS011;33098;52.400;16.880;2022-12-07T09:07:41;12.60;;;7.80;;
24335;SDS011;33098;52.400;16.880;2022-12-07T09:10:14;10.50;;;7.90;;
24335;SDS011;33098;52.400;16.880;2022-12-07T09:12:41;9.90;;;7.30;;
24335;SDS011;33098;52.400;16.880;2022-12-07T09:15:07;11.40;;;7.80;;
24335;SDS011;33098;52.400;16.880;2022-12-07T09:17:34;15.00;;;8.90;;
24335;SDS011;33098;52.400;16.880;2022-12-07T09:20:03;13.80;;;8.80;;
24335;SDS011;33098;52.400;16.880;2022-12-07T09:22:31;13.80;;;8.80;;
24335;SDS011;33098;52.400;16.880;2022-12-07T09:24:58;14.40;;;9.40;;
24335;SDS011;33098;52.400;16.880;2022-12-07T09:27:26;15.10;;;10.10;;
24335;SDS011;33098;52.400;16.880;2022-12-07T09:29:54;12.70;;;9.30;;
24335;SDS011;33098;52.400;16.880;2022-12-07T09:32:21;13.40;;;8.90;;
24335;SDS011;33098;52.400;16.880;2022-12-07T09:34:49;12.50;;;9.00;;
24335;SDS011;33098;52.400;16.880;2022-12-07T09:37:16;14.00;;;9.90;;
24335;SDS011;33098;52.400;16.880;2022-12-07T09:39:42;16.10;;;10.70;;
24335;SDS011;33098;52.400;16.880;2022-12-07T09:42:09;15.30;;;10.20;;
24335;SDS011;33098;52.400;16.880;2022-12-07T09:44:52;17.60;;;11.10;;
24335;SDS011;33098;52.400;16.880;2022-12-07T09:47:19;15.00;;;10.60;;
24335;SDS011;33098;52.400;16.880;2022-12-07T09:49:46;15.00;;;10.00;;
24335;SDS011;33098;52.400;16.880;2022-12-07T09:52:17;14.30;;;10.20;;
24335;SDS011;33098;52.400;16.880;2022-12-07T09:54:47;14.40;;;9.90;;
24335;SDS011;33098;52.400;16.880;2022-12-07T09:57:15;15.00;;;10.50;;
24335;SDS011;33098;52.400;16.880;2022-12-07T09:59:43;17.30;;;10.70;;
24335;SDS011;33098;52.400;16.880;2022-12-07T10:04:59;14.10;;;9.50;;
24335;SDS011;33098;52.400;16.880;2022-12-07T10:07:26;12.80;;;9.50;;
24335;SDS011;33098;52.400;16.880;2022-12-07T10:09:52;15.10;;;10.20;;
24335;SDS011;33098;52.400;16.880;2022-12-07T10:12:19;15.90;;;9.80;;
24335;SDS011;33098;52.400;16.880;2022-12-07T10:14:56;14.50;;;9.20;;
24335;SDS011;33098;52.400;16.880;2022-12-07T10:17:29;14.20;;;10.50;;
24335;SDS011;33098;52.400;16.880;2022-12-07T10:25:22;16.60;;;11.30;;
24335;SDS011;33098;52.400;16.880;2022-12-07T10:28:03;17.60;;;11.50;;
24335;SDS011;33098;52.400;16.880;2022-12-07T10:30:49;16.50;;;11.00;;
24335;SDS011;33098;52.400;16.880;2022-12-07T10:33:29;16.60;;;11.00;;
24335;SDS011;33098;52.400;16.880;2022-12-07T10:38:48;15.70;;;11.00;;
24335;SDS011;33098;52.400;16.880;2022-12-07T10:41:24;16.20;;;10.10;;
24335;SDS011;33098;52.400;16.880;2022-12-07T10:43:52;15.80;;;10.60;;
24335;SDS011;33098;52.400;16.880;2022-12-07T10:46:37;17.10;;;11.00;;
24335;SDS011;33098;52.400;16.880;2022-12-07T10:51:51;12.40;;;8.70;;
24335;SDS011;33098;52.400;16.880;2022-12-07T11:00:10;13.50;;;9.50;;
24335;SDS011;33098;52.400;16.880;2022-12-07T11:05:27;15.80;;;10.70;;
24335;SDS011;33098;52.400;16.880;2022-12-07T11:08:09;18.20;;;11.00;;
24335;SDS011;33098;52.400;16.880;2022-12-07T11:10:55;14.40;;;10.40;;
24335;SDS011;33098;52.400;16.880;2022-12-07T11:19:00;17.00;;;11.20;;
24335;SDS011;33098;52.400;16.880;2022-12-07T11:21:34;17.20;;;11.60;;
24335;SDS011;33098;52.400;16.880;2022-12-07T11:24:16;17.90;;;11.10;;
24335;SDS011;33098;52.400;16.880;2022-12-07T11:26:48;14.40;;;10.50;;
24335;SDS011;33098;52.400;16.880;2022-12-07T11:29:33;13.00;;;10.20;;
24335;SDS011;33098;52.400;16.880;2022-12-07T11:32:14;11.10;;;8.40;;
24335;SDS011;33098;52.400;16.880;2022-12-07T11:37:33;13.00;;;9.00;;
24335;SDS011;33098;52.400;16.880;2022-12-07T11:42:58;15.10;;;10.20;;
24335;SDS011;33098;52.400;16.880;2022-12-07T11:45:34;14.00;;;10.00;;
24335;SDS011;33098;52.400;16.880;2022-12-07T11:48:06;13.90;;;10.50;;
24335;SDS011;33098;52.400;16.880;2022-12-07T11:50:51;16.30;;;11.00;;
24335;SDS011;33098;52.400;16.880;2022-12-07T11:53:22;15.70;;;11.20;;
24335;SDS011;33098;52.400;16.880;2022-12-07T11:56:09;17.20;;;12.10;;
24335;SDS011;33098;52.400;16.880;2022-12-07T12:01:22;19.20;;;11.80;;
24335;SDS011;33098;52.400;16.880;2022-12-07T12:04:01;16.40;;;11.50;;
24335;SDS011;33098;52.400;16.880;2022-12-07T12:06:37;16.60;;;11.30;;
24335;SDS011;33098;52.400;16.880;2022-12-07T12:12:13;18.00;;;11.90;;
24335;SDS011;33098;52.400;16.880;2022-12-07T12:23:19;16.90;;;10.40;;
24335;SDS011;33098;52.400;16.880;2022-12-07T12:25:59;13.90;;;9.60;;
24335;SDS011;33098;52.400;16.880;2022-12-07T12:33:35;15.60;;;10.10;;
24335;SDS011;33098;52.400;16.880;2022-12-07T12:36:17;14.30;;;9.00;;
24335;SDS011;33098;52.400;16.880;2022-12-07T12:51:50;14.00;;;9.20;;
24335;SDS011;33098;52.400;16.880;2022-12-07T12:56:55;12.80;;;8.50;;
24335;SDS011;33098;52.400;16.880;2022-12-07T13:15:43;9.40;;;7.00;;
24335;SDS011;33098;52.400;16.880;2022-12-07T13:21:01;9.70;;;6.90;;
24335;SDS011;33098;52.400;16.880;2022-12-07T13:33:58;7.00;;;5.10;;
24335;SDS011;33098;52.400;16.880;2022-12-07T13:36:26;8.90;;;5.60;;
24335;SDS011;33098;52.400;16.880;2022-12-07T13:38:58;9.90;;;6.40;;
24335;SDS011;33098;52.400;16.880;2022-12-07T13:41:29;6.70;;;4.40;;
24335;SDS011;33098;52.400;16.880;2022-12-07T13:46:49;6.10;;;4.90;;
24335;SDS011;33098;52.400;16.880;2022-12-07T13:49:23;8.10;;;5.40;;
24335;SDS011;33098;52.400;16.880;2022-12-07T13:51:52;7.20;;;4.40;;
24335;SDS011;33098;52.400;16.880;2022-12-07T13:54:19;7.30;;;5.10;;
24335;SDS011;33098;52.400;16.880;2022-12-07T13:56:48;6.90;;;4.40;;
24335;SDS011;33098;52.400;16.880;2022-12-07T13:59:23;5.60;;;4.30;;
24335;SDS011;33098;52.400;16.880;2022-12-07T14:01:52;6.50;;;4.70;;
24335;SDS011;33098;52.400;16.880;2022-12-07T14:04:37;5.50;;;4.00;;
24335;SDS011;33098;52.400;16.880;2022-12-07T14:09:59;6.60;;;4.80;;
24335;SDS011;33098;52.400;16.880;2022-12-07T14:12:28;7.30;;;4.80;;
24335;SDS011;33098;52.400;16.880;2022-12-07T14:14:56;6.30;;;4.70;;
24335;SDS011;33098;52.400;16.880;2022-12-07T14:17:25;6.00;;;4.10;;
24335;SDS011;33098;52.400;16.880;2022-12-07T14:19:56;5.00;;;4.10;;
24335;SDS011;33098;52.400;16.880;2022-12-07T14:22:35;5.40;;;3.90;;
24335;SDS011;33098;52.400;16.880;2022-12-07T14:27:31;4.90;;;3.80;;
24335;SDS011;33098;52.400;16.880;2022-12-07T14:30:00;5.30;;;4.00;;
24335;SDS011;33098;52.400;16.880;2022-12-07T14:32:28;6.50;;;4.70;;
24335;SDS011;33098;52.400;16.880;2022-12-07T14:34:58;5.40;;;4.00;;
24335;SDS011;33098;52.400;16.880;2022-12-07T14:37:27;6.50;;;4.30;;
24335;SDS011;33098;52.400;16.880;2022-12-07T14:39:54;6.40;;;4.50;;
24335;SDS011;33098;52.400;16.880;2022-12-07T14:42:23;7.10;;;5.20;;
24335;SDS011;33098;52.400;16.880;2022-12-07T14:44:53;5.80;;;4.50;;
24335;SDS011;33098;52.400;16.880;2022-12-07T14:47:19;4.70;;;3.90;;
24335;SDS011;33098;52.400;16.880;2022-12-07T14:49:46;12.20;;;4.70;;
24335;SDS011;33098;52.400;16.880;2022-12-07T14:52:15;6.70;;;4.80;;
24335;SDS011;33098;52.400;16.880;2022-12-07T14:54:45;7.70;;;4.90;;
24335;SDS011;33098;52.400;16.880;2022-12-07T14:57:12;5.50;;;4.10;;
24335;SDS011;33098;52.400;16.880;2022-12-07T14:59:39;5.80;;;3.70;;
24335;SDS011;33098;52.400;16.880;2022-12-07T15:02:06;5.90;;;4.00;;
24335;SDS011;33098;52.400;16.880;2022-12-07T15:04:35;4.20;;;3.50;;
24335;SDS011;33098;52.400;16.880;2022-12-07T15:07:03;4.50;;;3.60;;
24335;SDS011;33098;52.400;16.880;2022-12-07T15:09:31;4.50;;;3.50;;
24335;SDS011;33098;52.400;16.880;2022-12-07T15:11:57;5.10;;;3.60;;
24335;SDS011;33098;52.400;16.880;2022-12-07T15:14:24;4.70;;;3.30;;
24335;SDS011;33098;52.400;16.880;2022-12-07T15:16:51;4.10;;;3.50;;
24335;SDS011;33098;52.400;16.880;2022-12-07T15:19:18;4.10;;;3.20;;
24335;SDS011;33098;52.400;16.880;2022-12-07T15:21:49;5.10;;;3.40;;
24335;SDS011;33098;52.400;16.880;2022-12-07T15:24:16;4.20;;;3.40;;
24335;SDS011;33098;52.400;16.880;2022-12-07T15:26:42;5.50;;;3.90;;
24335;SDS011;33098;52.400;16.880;2022-12-07T15:29:09;6.00;;;3.90;;
24335;SDS011;33098;52.400;16.880;2022-12-07T15:31:37;6.10;;;3.80;;
24335;SDS011;33098;52.400;16.880;2022-12-07T15:34:04;5.90;;;4.20;;
24335;SDS011;33098;52.400;16.880;2022-12-07T15:36:31;5.70;;;3.80;;
24335;SDS011;33098;52.400;16.880;2022-12-07T15:39:00;6.20;;;3.90;;
24335;SDS011;33098;52.400;16.880;2022-12-07T15:41:27;5.50;;;3.80;;
24335;SDS011;33098;52.400;16.880;2022-12-07T15:43:53;4.90;;;3.60;;
24335;SDS011;33098;52.400;16.880;2022-12-07T15:46:39;6.50;;;4.40;;
24335;SDS011;33098;52.400;16.880;2022-12-07T15:49:14;6.60;;;4.40;;
24335;SDS011;33098;52.400;16.880;2022-12-07T15:51:43;6.30;;;4.40;;
24335;SDS011;33098;52.400;16.880;2022-12-07T15:54:21;6.60;;;4.60;;
24335;SDS011;33098;52.400;16.880;2022-12-07T15:56:50;6.70;;;4.90;;
24335;SDS011;33098;52.400;16.880;2022-12-07T15:59:16;6.60;;;4.60;;
24335;SDS011;33098;52.400;16.880;2022-12-07T16:01:43;5.80;;;4.50;;
24335;SDS011;33098;52.400;16.880;2022-12-07T16:04:10;5.40;;;4.20;;
24335;SDS011;33098;52.400;16.880;2022-12-07T16:06:37;7.70;;;4.30;;
24335;SDS011;33098;52.400;16.880;2022-12-07T16:09:04;6.40;;;4.40;;
24335;SDS011;33098;52.400;16.880;2022-12-07T16:11:31;5.50;;;4.30;;
24335;SDS011;33098;52.400;16.880;2022-12-07T16:13:58;7.40;;;4.20;;
24335;SDS011;33098;52.400;16.880;2022-12-07T16:16:25;6.20;;;3.60;;
24335;SDS011;33098;52.400;16.880;2022-12-07T16:18:51;5.50;;;3.80;;
24335;SDS011;33098;52.400;16.880;2022-12-07T16:21:18;5.50;;;3.90;;
24335;SDS011;33098;52.400;16.880;2022-12-07T16:23:45;5.40;;;3.80;;
24335;SDS011;33098;52.400;16.880;2022-12-07T16:26:13;4.90;;;3.40;;
24335;SDS011;33098;52.400;16.880;2022-12-07T16:28:43;8.20;;;4.70;;
24335;SDS011;33098;52.400;16.880;2022-12-07T16:31:11;6.20;;;4.30;;
24335;SDS011;33098;52.400;16.880;2022-12-07T16:33:40;17.10;;;9.90;;
24335;SDS011;33098;52.400;16.880;2022-12-07T16:36:10;11.60;;;7.80;;
24335;SDS011;33098;52.400;16.880;2022-12-07T16:38:37;13.60;;;8.30;;
24335;SDS011;33098;52.400;16.880;2022-12-07T16:41:05;18.30;;;8.00;;
24335;SDS011;33098;52.400;16.880;2022-12-07T16:43:32;12.30;;;7.60;;
24335;SDS011;33098;52.400;16.880;2022-12-07T16:45:59;10.30;;;6.50;;
24335;SDS011;33098;52.400;16.880;2022-12-07T16:48:26;11.50;;;6.20;;
24335;SDS011;33098;52.400;16.880;2022-12-07T16:50:53;13.60;;;7.50;;
24335;SDS011;33098;52.400;16.880;2022-12-07T16:53:21;12.30;;;6.80;;
24335;SDS011;33098;52.400;16.880;2022-12-07T16:55:49;11.70;;;6.80;;
24335;SDS011;33098;52.400;16.880;2022-12-07T16:58:17;9.80;;;6.10;;
24335;SDS011;33098;52.400;16.880;2022-12-07T17:00:44;11.10;;;6.00;;
24335;SDS011;33098;52.400;16.880;2022-12-07T17:03:11;10.60;;;6.40;;
24335;SDS011;33098;52.400;16.880;2022-12-07T17:05:39;10.80;;;5.90;;
24335;SDS011;33098;52.400;16.880;2022-12-07T17:08:07;11.80;;;6.40;;
24335;SDS011;33098;52.400;16.880;2022-12-07T17:10:35;11.00;;;5.90;;
24335;SDS011;33098;52.400;16.880;2022-12-07T17:13:04;10.90;;;6.10;;
24335;SDS011;33098;52.400;16.880;2022-12-07T17:15:55;12.10;;;6.70;;